sensor_id;sensor_type;location;lat;lon;timestamp;P1;durP1;ratioP1;P2;durP2;ratioP2
19225;SDS011;9747;48.536;12.522;2023-05-29T00:02:19;3.30;;;3.00;;
19225;SDS011;9747;48.536;12.522;2023-05-29T00:04:47;3.40;;;3.10;;
19225;SDS011;9747;48.536;12.522;2023-05-29T00:07:16;3.70;;;3.40;;
19225;SDS011;9747;48.536;12.522;2023-05-29T00:09:43;3.63;;;3.33;;
19225;SDS011;9747;48.536;12.522;2023-05-29T00:12:11;3.05;;;2.78;;
19225;SDS011;9747;48.536;12.522;2023-05-29T00:14:40;3.10;;;2.90;;
19225;SDS011;9747;48.536;12.522;2023-05-29T00:17:09;3.13;;;2.70;;
19225;SDS011;9747;48.536;12.522;2023-05-29T00:19:37;3.50;;;3.20;;
19225;SDS011;9747;48.536;12.522;2023-05-29T00:22:05;3.05;;;2.75;;
19225;SDS011;9747;48.536;12.522;2023-05-29T00:24:32;3.20;;;2.97;;
19225;SDS011;9747;48.536;12.522;2023-05-29T00:27:00;3.38;;;3.08;;
19225;SDS011;9747;48.536;12.522;2023-05-29T00:29:28;3.25;;;2.95;;
19225;SDS011;9747;48.536;12.522;2023-05-29T00:31:56;3.47;;;3.17;;
19225;SDS011;9747;48.536;12.522;2023-05-29T00:34:25;3.40;;;3.05;;
19225;SDS011;9747;48.536;12.522;2023-05-29T00:36:53;3.80;;;3.38;;
19225;SDS011;9747;48.536;12.522;2023-05-29T00:39:21;3.17;;;2.90;;
19225;SDS011;9747;48.536;12.522;2023-05-29T00:41:49;3.72;;;3.28;;
19225;SDS011;9747;48.536;12.522;2023-05-29T00:44:17;3.25;;;2.95;;
19225;SDS011;9747;48.536;12.522;2023-05-29T00:46:44;2.95;;;2.72;;
19225;SDS011;9747;48.536;12.522;2023-05-29T00:49:12;4.05;;;3.30;;
19225;SDS011;9747;48.536;12.522;2023-05-29T00:51:42;3.30;;;3.00;;
19225;SDS011;9747;48.536;12.522;2023-05-29T00:54:10;3.90;;;3.10;;
19225;SDS011;9747;48.536;12.522;2023-05-29T00:56:41;3.22;;;2.92;;
19225;SDS011;9747;48.536;12.522;2023-05-29T00:59:09;3.53;;;3.15;;
19225;SDS011;9747;48.536;12.522;2023-05-29T01:01:38;3.35;;;3.00;;
19225;SDS011;9747;48.536;12.522;2023-05-29T01:04:07;3.15;;;2.95;;
19225;SDS011;9747;48.536;12.522;2023-05-29T01:06:34;3.60;;;3.15;;
19225;SDS011;9747;48.536;12.522;2023-05-29T01:09:03;3.53;;;3.22;;
19225;SDS011;9747;48.536;12.522;2023-05-29T01:11:32;3.30;;;3.00;;
19225;SDS011;9747;48.536;12.522;2023-05-29T01:14:08;3.95;;;3.20;;
19225;SDS011;9747;48.536;12.522;2023-05-29T01:16:41;3.72;;;3.28;;
19225;SDS011;9747;48.536;12.522;2023-05-29T01:19:22;3.50;;;3.17;;
19225;SDS011;9747;48.536;12.522;2023-05-29T01:22:13;3.50;;;3.20;;
19225;SDS011;9747;48.536;12.522;2023-05-29T01:24:54;3.67;;;3.17;;
19225;SDS011;9747;48.536;12.522;2023-05-29T01:27:30;3.20;;;2.90;;
19225;SDS011;9747;48.536;12.522;2023-05-29T01:29:58;3.30;;;3.03;;
19225;SDS011;9747;48.536;12.522;2023-05-29T01:32:28;3.85;;;3.55;;
19225;SDS011;9747;48.536;12.522;2023-05-29T01:34:56;3.42;;;3.13;;
19225;SDS011;9747;48.536;12.522;2023-05-29T01:37:23;4.10;;;3.30;;
19225;SDS011;9747;48.536;12.522;2023-05-29T01:39:55;3.78;;;3.38;;
19225;SDS011;9747;48.536;12.522;2023-05-29T01:42:24;4.07;;;3.30;;
19225;SDS011;9747;48.536;12.522;2023-05-29T01:44:54;3.33;;;3.03;;
19225;SDS011;9747;48.536;12.522;2023-05-29T01:47:21;4.13;;;3.30;;
19225;SDS011;9747;48.536;12.522;2023-05-29T01:49:49;3.67;;;2.92;;
19225;SDS011;9747;48.536;12.522;2023-05-29T01:52:19;3.78;;;3.20;;
19225;SDS011;9747;48.536;12.522;2023-05-29T01:54:46;3.65;;;3.35;;
19225;SDS011;9747;48.536;12.522;2023-05-29T01:57:14;3.83;;;3.42;;
19225;SDS011;9747;48.536;12.522;2023-05-29T01:59:41;4.00;;;3.05;;
19225;SDS011;9747;48.536;12.522;2023-05-29T02:02:10;3.38;;;3.08;;
19225;SDS011;9747;48.536;12.522;2023-05-29T02:04:38;3.75;;;3.40;;
19225;SDS011;9747;48.536;12.522;2023-05-29T02:07:06;3.80;;;3.35;;
19225;SDS011;9747;48.536;12.522;2023-05-29T02:09:34;3.50;;;3.20;;
19225;SDS011;9747;48.536;12.522;2023-05-29T02:12:02;3.28;;;2.97;;
19225;SDS011;9747;48.536;12.522;2023-05-29T02:14:31;3.28;;;2.97;;
19225;SDS011;9747;48.536;12.522;2023-05-29T02:16:59;3.17;;;2.97;;
19225;SDS011;9747;48.536;12.522;2023-05-29T02:19:29;3.45;;;3.15;;
19225;SDS011;9747;48.536;12.522;2023-05-29T02:21:56;3.20;;;2.90;;
19225;SDS011;9747;48.536;12.522;2023-05-29T02:24:24;3.13;;;2.85;;
19225;SDS011;9747;48.536;12.522;2023-05-29T02:26:52;3.40;;;3.10;;
19225;SDS011;9747;48.536;12.522;2023-05-29T02:29:19;3.47;;;3.10;;
19225;SDS011;9747;48.536;12.522;2023-05-29T02:31:47;3.22;;;2.90;;
19225;SDS011;9747;48.536;12.522;2023-05-29T02:34:14;4.38;;;3.20;;
19225;SDS011;9747;48.536;12.522;2023-05-29T02:36:43;3.67;;;3.10;;
19225;SDS011;9747;48.536;12.522;2023-05-29T02:39:11;3.40;;;3.10;;
19225;SDS011;9747;48.536;12.522;2023-05-29T02:41:38;3.50;;;3.20;;
19225;SDS011;9747;48.536;12.522;2023-05-29T02:44:06;3.20;;;2.90;;
19225;SDS011;9747;48.536;12.522;2023-05-29T02:46:33;3.47;;;3.17;;
19225;SDS011;9747;48.536;12.522;2023-05-29T02:49:01;3.50;;;3.20;;
19225;SDS011;9747;48.536;12.522;2023-05-29T02:51:29;4.15;;;3.55;;
19225;SDS011;9747;48.536;12.522;2023-05-29T02:53:59;3.38;;;3.08;;
19225;SDS011;9747;48.536;12.522;2023-05-29T02:56:26;4.40;;;3.20;;
19225;SDS011;9747;48.536;12.522;2023-05-29T02:58:54;3.35;;;2.90;;
19225;SDS011;9747;48.536;12.522;2023-05-29T03:01:21;4.13;;;3.10;;
19225;SDS011;9747;48.536;12.522;2023-05-29T03:03:49;3.20;;;3.00;;
19225;SDS011;9747;48.536;12.522;2023-05-29T03:06:17;3.22;;;2.92;;
19225;SDS011;9747;48.536;12.522;2023-05-29T03:08:45;3.78;;;3.42;;
19225;SDS011;9747;48.536;12.522;2023-05-29T03:11:14;3.72;;;3.08;;
19225;SDS011;9747;48.536;12.522;2023-05-29T03:13:42;3.90;;;3.50;;
19225;SDS011;9747;48.536;12.522;2023-05-29T03:16:12;3.80;;;3.30;;
19225;SDS011;9747;48.536;12.522;2023-05-29T03:18:41;3.55;;;3.15;;
19225;SDS011;9747;48.536;12.522;2023-05-29T03:21:10;3.60;;;3.30;;
19225;SDS011;9747;48.536;12.522;2023-05-29T03:23:38;3.40;;;3.08;;
19225;SDS011;9747;48.536;12.522;2023-05-29T03:26:05;3.58;;;3.25;;
19225;SDS011;9747;48.536;12.522;2023-05-29T03:28:35;3.45;;;3.15;;
19225;SDS011;9747;48.536;12.522;2023-05-29T03:31:06;3.25;;;2.95;;
19225;SDS011;9747;48.536;12.522;2023-05-29T03:33:35;3.58;;;3.28;;
19225;SDS011;9747;48.536;12.522;2023-05-29T03:36:25;3.70;;;3.30;;
19225;SDS011;9747;48.536;12.522;2023-05-29T03:38:53;3.25;;;2.92;;
19225;SDS011;9747;48.536;12.522;2023-05-29T03:41:21;2.92;;;2.72;;
19225;SDS011;9747;48.536;12.522;2023-05-29T03:43:52;3.15;;;2.95;;
19225;SDS011;9747;48.536;12.522;2023-05-29T03:46:22;3.47;;;3.17;;
19225;SDS011;9747;48.536;12.522;2023-05-29T03:48:49;2.97;;;2.78;;
19225;SDS011;9747;48.536;12.522;2023-05-29T03:51:17;3.70;;;3.03;;
19225;SDS011;9747;48.536;12.522;2023-05-29T03:53:45;3.22;;;2.95;;
19225;SDS011;9747;48.536;12.522;2023-05-29T03:56:12;3.00;;;2.80;;
19225;SDS011;9747;48.536;12.522;2023-05-29T03:58:40;3.70;;;3.10;;
19225;SDS011;9747;48.536;12.522;2023-05-29T04:01:09;3.58;;;3.28;;
19225;SDS011;9747;48.536;12.522;2023-05-29T04:03:37;3.20;;;2.90;;
19225;SDS011;9747;48.536;12.522;2023-05-29T04:06:05;3.47;;;3.17;;
19225;SDS011;9747;48.536;12.522;2023-05-29T04:08:34;3.50;;;3.20;;
19225;SDS011;9747;48.536;12.522;2023-05-29T04:11:01;3.20;;;2.95;;
19225;SDS011;9747;48.536;12.522;2023-05-29T04:13:30;3.38;;;3.10;;
19225;SDS011;9747;48.536;12.522;2023-05-29T04:15:58;3.50;;;3.10;;
19225;SDS011;9747;48.536;12.522;2023-05-29T04:18:27;3.38;;;3.10;;
19225;SDS011;9747;48.536;12.522;2023-05-29T04:20:54;3.50;;;3.20;;
19225;SDS011;9747;48.536;12.522;2023-05-29T04:23:22;3.22;;;2.90;;
19225;SDS011;9747;48.536;12.522;2023-05-29T04:25:50;3.40;;;3.10;;
19225;SDS011;9747;48.536;12.522;2023-05-29T04:28:22;3.17;;;2.88;;
19225;SDS011;9747;48.536;12.522;2023-05-29T04:30:50;3.35;;;3.05;;
19225;SDS011;9747;48.536;12.522;2023-05-29T04:33:20;3.35;;;3.05;;
19225;SDS011;9747;48.536;12.522;2023-05-29T04:35:52;3.47;;;3.17;;
19225;SDS011;9747;48.536;12.522;2023-05-29T04:38:19;4.03;;;3.60;;
19225;SDS011;9747;48.536;12.522;2023-05-29T04:40:51;3.55;;;3.00;;
19225;SDS011;9747;48.536;12.522;2023-05-29T04:43:22;4.22;;;3.10;;
19225;SDS011;9747;48.536;12.522;2023-05-29T04:46:01;3.33;;;3.03;;
19225;SDS011;9747;48.536;12.522;2023-05-29T04:48:31;3.30;;;2.95;;
19225;SDS011;9747;48.536;12.522;2023-05-29T04:51:00;3.72;;;2.92;;
19225;SDS011;9747;48.536;12.522;2023-05-29T04:53:28;3.22;;;2.92;;
19225;SDS011;9747;48.536;12.522;2023-05-29T04:55:57;2.88;;;2.60;;
19225;SDS011;9747;48.536;12.522;2023-05-29T04:58:25;3.05;;;2.83;;
19225;SDS011;9747;48.536;12.522;2023-05-29T05:00:53;3.28;;;2.90;;
19225;SDS011;9747;48.536;12.522;2023-05-29T05:03:23;3.42;;;3.08;;
19225;SDS011;9747;48.536;12.522;2023-05-29T05:05:51;3.20;;;2.90;;
19225;SDS011;9747;48.536;12.522;2023-05-29T05:08:20;3.28;;;2.97;;
19225;SDS011;9747;48.536;12.522;2023-05-29T05:10:47;3.25;;;2.90;;
19225;SDS011;9747;48.536;12.522;2023-05-29T05:13:16;3.90;;;3.38;;
19225;SDS011;9747;48.536;12.522;2023-05-29T05:15:43;3.38;;;3.05;;
19225;SDS011;9747;48.536;12.522;2023-05-29T05:18:11;3.00;;;2.75;;
19225;SDS011;9747;48.536;12.522;2023-05-29T05:20:39;2.97;;;2.78;;
19225;SDS011;9747;48.536;12.522;2023-05-29T05:23:07;3.45;;;3.15;;
19225;SDS011;9747;48.536;12.522;2023-05-29T05:25:38;3.85;;;2.83;;
19225;SDS011;9747;48.536;12.522;2023-05-29T05:28:05;3.35;;;3.05;;
19225;SDS011;9747;48.536;12.522;2023-05-29T05:30:35;3.10;;;2.80;;
19225;SDS011;9747;48.536;12.522;2023-05-29T05:33:02;2.70;;;2.50;;
19225;SDS011;9747;48.536;12.522;2023-05-29T05:35:31;3.28;;;2.97;;
19225;SDS011;9747;48.536;12.522;2023-05-29T05:38:01;3.25;;;2.90;;
19225;SDS011;9747;48.536;12.522;2023-05-29T05:40:29;3.50;;;3.10;;
19225;SDS011;9747;48.536;12.522;2023-05-29T05:43:04;3.00;;;2.75;;
19225;SDS011;9747;48.536;12.522;2023-05-29T05:45:50;3.28;;;3.03;;
19225;SDS011;9747;48.536;12.522;2023-05-29T05:48:19;3.20;;;2.83;;
19225;SDS011;9747;48.536;12.522;2023-05-29T05:50:47;3.33;;;2.95;;
19225;SDS011;9747;48.536;12.522;2023-05-29T05:53:15;3.00;;;2.80;;
19225;SDS011;9747;48.536;12.522;2023-05-29T05:55:43;2.95;;;2.70;;
19225;SDS011;9747;48.536;12.522;2023-05-29T05:58:12;3.00;;;2.80;;
19225;SDS011;9747;48.536;12.522;2023-05-29T06:00:41;3.35;;;3.05;;
19225;SDS011;9747;48.536;12.522;2023-05-29T06:03:09;3.65;;;3.35;;
19225;SDS011;9747;48.536;12.522;2023-05-29T06:05:53;3.38;;;3.00;;
19225;SDS011;9747;48.536;12.522;2023-05-29T06:08:21;3.17;;;2.97;;
19225;SDS011;9747;48.536;12.522;2023-05-29T06:10:50;3.70;;;3.17;;
19225;SDS011;9747;48.536;12.522;2023-05-29T06:13:20;3.17;;;2.90;;
19225;SDS011;9747;48.536;12.522;2023-05-29T06:15:53;3.42;;;3.13;;
19225;SDS011;9747;48.536;12.522;2023-05-29T06:18:21;3.45;;;3.15;;
19225;SDS011;9747;48.536;12.522;2023-05-29T06:20:48;3.50;;;3.20;;
19225;SDS011;9747;48.536;12.522;2023-05-29T06:23:16;3.33;;;3.03;;
19225;SDS011;9747;48.536;12.522;2023-05-29T06:25:44;3.30;;;3.00;;
19225;SDS011;9747;48.536;12.522;2023-05-29T06:28:11;3.03;;;2.83;;
19225;SDS011;9747;48.536;12.522;2023-05-29T06:30:40;3.60;;;3.20;;
19225;SDS011;9747;48.536;12.522;2023-05-29T06:33:08;3.20;;;2.80;;
19225;SDS011;9747;48.536;12.522;2023-05-29T06:35:38;2.88;;;2.67;;
19225;SDS011;9747;48.536;12.522;2023-05-29T06:38:06;2.78;;;2.58;;
19225;SDS011;9747;48.536;12.522;2023-05-29T06:40:33;3.05;;;2.75;;
19225;SDS011;9747;48.536;12.522;2023-05-29T06:43:01;3.20;;;2.90;;
19225;SDS011;9747;48.536;12.522;2023-05-29T06:45:38;2.78;;;2.58;;
19225;SDS011;9747;48.536;12.522;2023-05-29T06:48:08;2.90;;;2.70;;
19225;SDS011;9747;48.536;12.522;2023-05-29T06:50:37;3.38;;;2.80;;
19225;SDS011;9747;48.536;12.522;2023-05-29T06:53:25;3.00;;;2.70;;
19225;SDS011;9747;48.536;12.522;2023-05-29T06:55:55;3.88;;;2.65;;
19225;SDS011;9747;48.536;12.522;2023-05-29T06:58:23;3.20;;;2.95;;
19225;SDS011;9747;48.536;12.522;2023-05-29T07:00:52;2.80;;;2.60;;
19225;SDS011;9747;48.536;12.522;2023-05-29T07:03:26;3.60;;;2.88;;
19225;SDS011;9747;48.536;12.522;2023-05-29T07:05:54;2.92;;;2.72;;
19225;SDS011;9747;48.536;12.522;2023-05-29T07:08:22;2.78;;;2.58;;
19225;SDS011;9747;48.536;12.522;2023-05-29T07:10:51;3.40;;;3.10;;
19225;SDS011;9747;48.536;12.522;2023-05-29T07:13:20;3.10;;;2.65;;
19225;SDS011;9747;48.536;12.522;2023-05-29T07:15:48;2.85;;;2.60;;
19225;SDS011;9747;48.536;12.522;2023-05-29T07:18:22;2.83;;;2.60;;
19225;SDS011;9747;48.536;12.522;2023-05-29T07:20:49;2.80;;;2.60;;
19225;SDS011;9747;48.536;12.522;2023-05-29T07:23:20;2.97;;;2.75;;
19225;SDS011;9747;48.536;12.522;2023-05-29T07:25:47;3.15;;;2.85;;
19225;SDS011;9747;48.536;12.522;2023-05-29T07:28:15;3.03;;;2.72;;
19225;SDS011;9747;48.536;12.522;2023-05-29T07:30:43;2.80;;;2.60;;
19225;SDS011;9747;48.536;12.522;2023-05-29T07:33:11;2.85;;;2.65;;
19225;SDS011;9747;48.536;12.522;2023-05-29T07:35:40;2.95;;;2.75;;
19225;SDS011;9747;48.536;12.522;2023-05-29T07:38:08;2.67;;;2.47;;
19225;SDS011;9747;48.536;12.522;2023-05-29T07:40:37;2.80;;;2.60;;
19225;SDS011;9747;48.536;12.522;2023-05-29T07:43:07;2.80;;;2.60;;
19225;SDS011;9747;48.536;12.522;2023-05-29T07:45:55;2.70;;;2.50;;
19225;SDS011;9747;48.536;12.522;2023-05-29T07:48:23;3.15;;;2.85;;
19225;SDS011;9747;48.536;12.522;2023-05-29T07:50:52;2.28;;;2.17;;
19225;SDS011;9747;48.536;12.522;2023-05-29T07:53:21;2.78;;;2.58;;
19225;SDS011;9747;48.536;12.522;2023-05-29T07:55:49;2.60;;;2.40;;
19225;SDS011;9747;48.536;12.522;2023-05-29T07:58:17;2.70;;;2.50;;
19225;SDS011;9747;48.536;12.522;2023-05-29T08:00:46;2.40;;;2.20;;
19225;SDS011;9747;48.536;12.522;2023-05-29T08:03:14;2.63;;;2.25;;
19225;SDS011;9747;48.536;12.522;2023-05-29T08:06:01;3.13;;;2.88;;
19225;SDS011;9747;48.536;12.522;2023-05-29T08:08:29;2.70;;;2.50;;
19225;SDS011;9747;48.536;12.522;2023-05-29T08:10:57;2.70;;;2.50;;
19225;SDS011;9747;48.536;12.522;2023-05-29T08:13:25;2.90;;;2.70;;
19225;SDS011;9747;48.536;12.522;2023-05-29T08:15:54;2.70;;;2.50;;
19225;SDS011;9747;48.536;12.522;2023-05-29T08:18:24;2.67;;;2.47;;
19225;SDS011;9747;48.536;12.522;2023-05-29T08:20:52;2.40;;;2.20;;
19225;SDS011;9747;48.536;12.522;2023-05-29T08:23:21;2.80;;;2.50;;
19225;SDS011;9747;48.536;12.522;2023-05-29T08:25:49;2.83;;;2.63;;
19225;SDS011;9747;48.536;12.522;2023-05-29T08:28:17;2.75;;;2.55;;
19225;SDS011;9747;48.536;12.522;2023-05-29T08:30:45;2.50;;;2.30;;
19225;SDS011;9747;48.536;12.522;2023-05-29T08:33:12;2.80;;;2.60;;
19225;SDS011;9747;48.536;12.522;2023-05-29T08:35:40;2.63;;;2.40;;
19225;SDS011;9747;48.536;12.522;2023-05-29T08:38:08;2.38;;;2.25;;
19225;SDS011;9747;48.536;12.522;2023-05-29T08:40:37;3.65;;;2.70;;
19225;SDS011;9747;48.536;12.522;2023-05-29T08:43:06;2.45;;;2.30;;
19225;SDS011;9747;48.536;12.522;2023-05-29T08:45:39;2.80;;;2.60;;
19225;SDS011;9747;48.536;12.522;2023-05-29T08:48:10;2.33;;;2.22;;
19225;SDS011;9747;48.536;12.522;2023-05-29T08:50:40;2.60;;;2.40;;
19225;SDS011;9747;48.536;12.522;2023-05-29T08:53:12;2.80;;;2.60;;
19225;SDS011;9747;48.536;12.522;2023-05-29T08:55:41;2.55;;;2.30;;
19225;SDS011;9747;48.536;12.522;2023-05-29T08:58:11;2.70;;;2.50;;
19225;SDS011;9747;48.536;12.522;2023-05-29T09:00:38;2.65;;;2.45;;
19225;SDS011;9747;48.536;12.522;2023-05-29T09:03:07;2.03;;;1.92;;
19225;SDS011;9747;48.536;12.522;2023-05-29T09:05:34;2.50;;;2.40;;
19225;SDS011;9747;48.536;12.522;2023-05-29T09:08:05;2.45;;;2.35;;
19225;SDS011;9747;48.536;12.522;2023-05-29T09:10:33;2.80;;;2.60;;
19225;SDS011;9747;48.536;12.522;2023-05-29T09:13:02;3.03;;;2.60;;
19225;SDS011;9747;48.536;12.522;2023-05-29T09:15:30;2.67;;;2.47;;
19225;SDS011;9747;48.536;12.522;2023-05-29T09:17:58;3.00;;;2.70;;
19225;SDS011;9747;48.536;12.522;2023-05-29T09:20:26;2.80;;;2.60;;
19225;SDS011;9747;48.536;12.522;2023-05-29T09:22:55;2.47;;;2.30;;
19225;SDS011;9747;48.536;12.522;2023-05-29T09:25:24;2.50;;;2.30;;
19225;SDS011;9747;48.536;12.522;2023-05-29T09:27:55;2.47;;;2.28;;
19225;SDS011;9747;48.536;12.522;2023-05-29T09:30:32;3.22;;;2.58;;
19225;SDS011;9747;48.536;12.522;2023-05-29T09:33:02;2.20;;;2.10;;
19225;SDS011;9747;48.536;12.522;2023-05-29T09:35:33;2.78;;;2.30;;
19225;SDS011;9747;48.536;12.522;2023-05-29T09:38:02;2.40;;;2.20;;
19225;SDS011;9747;48.536;12.522;2023-05-29T09:40:31;2.63;;;2.42;;
19225;SDS011;9747;48.536;12.522;2023-05-29T09:43:06;2.70;;;2.50;;
19225;SDS011;9747;48.536;12.522;2023-05-29T09:45:39;2.35;;;2.22;;
19225;SDS011;9747;48.536;12.522;2023-05-29T09:48:08;2.67;;;2.47;;
19225;SDS011;9747;48.536;12.522;2023-05-29T09:50:40;2.63;;;2.42;;
19225;SDS011;9747;48.536;12.522;2023-05-29T09:53:16;2.30;;;2.15;;
19225;SDS011;9747;48.536;12.522;2023-05-29T09:55:45;2.75;;;2.55;;
19225;SDS011;9747;48.536;12.522;2023-05-29T09:58:13;2.38;;;2.17;;
19225;SDS011;9747;48.536;12.522;2023-05-29T10:00:43;2.60;;;2.40;;
19225;SDS011;9747;48.536;12.522;2023-05-29T10:03:11;2.55;;;2.35;;
19225;SDS011;9747;48.536;12.522;2023-05-29T10:05:39;2.33;;;2.20;;
19225;SDS011;9747;48.536;12.522;2023-05-29T10:08:07;2.38;;;2.28;;
19225;SDS011;9747;48.536;12.522;2023-05-29T10:10:38;2.50;;;2.30;;
19225;SDS011;9747;48.536;12.522;2023-05-29T10:13:09;2.60;;;2.40;;
19225;SDS011;9747;48.536;12.522;2023-05-29T10:15:39;2.50;;;2.30;;
19225;SDS011;9747;48.536;12.522;2023-05-29T10:18:12;2.20;;;2.10;;
19225;SDS011;9747;48.536;12.522;2023-05-29T10:20:45;2.60;;;2.40;;
19225;SDS011;9747;48.536;12.522;2023-05-29T10:23:14;3.00;;;2.53;;
19225;SDS011;9747;48.536;12.522;2023-05-29T10:25:42;2.35;;;2.15;;
19225;SDS011;9747;48.536;12.522;2023-05-29T10:28:11;2.42;;;2.22;;
19225;SDS011;9747;48.536;12.522;2023-05-29T10:30:41;2.83;;;2.58;;
19225;SDS011;9747;48.536;12.522;2023-05-29T10:33:18;2.38;;;2.17;;
19225;SDS011;9747;48.536;12.522;2023-05-29T10:36:04;2.33;;;2.22;;
19225;SDS011;9747;48.536;12.522;2023-05-29T10:38:36;2.58;;;2.38;;
19225;SDS011;9747;48.536;12.522;2023-05-29T10:41:28;2.40;;;2.20;;
19225;SDS011;9747;48.536;12.522;2023-05-29T10:43:58;2.03;;;1.92;;
19225;SDS011;9747;48.536;12.522;2023-05-29T10:49:34;2.60;;;2.40;;
19225;SDS011;9747;48.536;12.522;2023-05-29T10:52:02;2.20;;;2.10;;
19225;SDS011;9747;48.536;12.522;2023-05-29T10:54:49;2.50;;;2.30;;
19225;SDS011;9747;48.536;12.522;2023-05-29T10:57:20;2.53;;;2.40;;
19225;SDS011;9747;48.536;12.522;2023-05-29T10:59:57;2.40;;;2.20;;
19225;SDS011;9747;48.536;12.522;2023-05-29T11:02:29;2.55;;;2.35;;
19225;SDS011;9747;48.536;12.522;2023-05-29T11:05:11;2.65;;;2.45;;
19225;SDS011;9747;48.536;12.522;2023-05-29T11:07:52;2.67;;;2.47;;
19225;SDS011;9747;48.536;12.522;2023-05-29T11:10:41;2.50;;;2.30;;
19225;SDS011;9747;48.536;12.522;2023-05-29T11:13:10;2.63;;;2.42;;
19225;SDS011;9747;48.536;12.522;2023-05-29T11:16:03;2.35;;;2.22;;
19225;SDS011;9747;48.536;12.522;2023-05-29T11:18:40;2.60;;;2.40;;
19225;SDS011;9747;48.536;12.522;2023-05-29T11:24:00;2.45;;;2.25;;
19225;SDS011;9747;48.536;12.522;2023-05-29T11:26:30;2.30;;;2.10;;
19225;SDS011;9747;48.536;12.522;2023-05-29T11:28:59;2.20;;;2.10;;
19225;SDS011;9747;48.536;12.522;2023-05-29T11:31:27;2.50;;;2.30;;
19225;SDS011;9747;48.536;12.522;2023-05-29T11:33:59;2.28;;;2.17;;
19225;SDS011;9747;48.536;12.522;2023-05-29T11:36:30;2.63;;;2.42;;
19225;SDS011;9747;48.536;12.522;2023-05-29T11:38:59;2.33;;;2.20;;
19225;SDS011;9747;48.536;12.522;2023-05-29T11:41:28;2.58;;;2.38;;
19225;SDS011;9747;48.536;12.522;2023-05-29T11:43:56;2.60;;;2.40;;
19225;SDS011;9747;48.536;12.522;2023-05-29T11:46:26;2.42;;;2.22;;
19225;SDS011;9747;48.536;12.522;2023-05-29T11:48:56;2.40;;;2.25;;
19225;SDS011;9747;48.536;12.522;2023-05-29T11:51:26;2.30;;;2.10;;
19225;SDS011;9747;48.536;12.522;2023-05-29T11:53:55;2.17;;;2.08;;
19225;SDS011;9747;48.536;12.522;2023-05-29T11:56:24;2.00;;;1.90;;
19225;SDS011;9747;48.536;12.522;2023-05-29T11:58:51;2.17;;;2.08;;
19225;SDS011;9747;48.536;12.522;2023-05-29T12:01:22;2.45;;;2.25;;
19225;SDS011;9747;48.536;12.522;2023-05-29T12:03:50;2.60;;;2.40;;
19225;SDS011;9747;48.536;12.522;2023-05-29T12:06:31;2.30;;;2.20;;
19225;SDS011;9747;48.536;12.522;2023-05-29T12:09:01;2.13;;;2.03;;
19225;SDS011;9747;48.536;12.522;2023-05-29T12:11:29;2.10;;;2.00;;
19225;SDS011;9747;48.536;12.522;2023-05-29T12:13:59;2.13;;;2.03;;
19225;SDS011;9747;48.536;12.522;2023-05-29T12:16:27;2.17;;;2.08;;
19225;SDS011;9747;48.536;12.522;2023-05-29T12:18:57;2.67;;;2.47;;
19225;SDS011;9747;48.536;12.522;2023-05-29T12:21:26;2.30;;;2.10;;
19225;SDS011;9747;48.536;12.522;2023-05-29T12:23:55;1.95;;;1.85;;
19225;SDS011;9747;48.536;12.522;2023-05-29T12:26:23;2.28;;;2.13;;
19225;SDS011;9747;48.536;12.522;2023-05-29T12:28:51;2.50;;;2.30;;
19225;SDS011;9747;48.536;12.522;2023-05-29T12:31:27;2.25;;;2.15;;
19225;SDS011;9747;48.536;12.522;2023-05-29T12:33:59;2.10;;;2.00;;
19225;SDS011;9747;48.536;12.522;2023-05-29T12:36:27;2.42;;;2.22;;
19225;SDS011;9747;48.536;12.522;2023-05-29T12:38:57;2.05;;;1.95;;
19225;SDS011;9747;48.536;12.522;2023-05-29T12:41:26;2.13;;;2.00;;
19225;SDS011;9747;48.536;12.522;2023-05-29T12:43:55;2.28;;;2.10;;
19225;SDS011;9747;48.536;12.522;2023-05-29T12:46:23;2.47;;;2.10;;
19225;SDS011;9747;48.536;12.522;2023-05-29T12:48:52;2.13;;;1.98;;
19225;SDS011;9747;48.536;12.522;2023-05-29T12:51:24;2.10;;;2.00;;
19225;SDS011;9747;48.536;12.522;2023-05-29T12:53:52;2.20;;;2.10;;
19225;SDS011;9747;48.536;12.522;2023-05-29T12:56:23;2.05;;;1.95;;
19225;SDS011;9747;48.536;12.522;2023-05-29T12:58:52;1.90;;;1.83;;
19225;SDS011;9747;48.536;12.522;2023-05-29T13:01:20;2.33;;;2.20;;
19225;SDS011;9747;48.536;12.522;2023-05-29T13:03:48;2.50;;;2.30;;
19225;SDS011;9747;48.536;12.522;2023-05-29T13:06:16;2.30;;;2.10;;
19225;SDS011;9747;48.536;12.522;2023-05-29T13:08:44;2.03;;;1.92;;
19225;SDS011;9747;48.536;12.522;2023-05-29T13:11:11;1.98;;;1.88;;
19225;SDS011;9747;48.536;12.522;2023-05-29T13:13:40;2.10;;;2.00;;
19225;SDS011;9747;48.536;12.522;2023-05-29T13:16:09;2.20;;;2.00;;
19225;SDS011;9747;48.536;12.522;2023-05-29T13:18:36;2.20;;;2.10;;
19225;SDS011;9747;48.536;12.522;2023-05-29T13:21:04;2.10;;;2.00;;
19225;SDS011;9747;48.536;12.522;2023-05-29T13:23:31;2.22;;;2.08;;
19225;SDS011;9747;48.536;12.522;2023-05-29T13:25:59;1.98;;;1.88;;
19225;SDS011;9747;48.536;12.522;2023-05-29T13:28:27;2.60;;;2.40;;
19225;SDS011;9747;48.536;12.522;2023-05-29T13:30:55;2.03;;;1.92;;
19225;SDS011;9747;48.536;12.522;2023-05-29T13:33:23;2.08;;;1.98;;
19225;SDS011;9747;48.536;12.522;2023-05-29T13:35:50;2.08;;;1.98;;
19225;SDS011;9747;48.536;12.522;2023-05-29T13:38:18;2.30;;;2.10;;
19225;SDS011;9747;48.536;12.522;2023-05-29T13:40:46;1.90;;;1.80;;
19225;SDS011;9747;48.536;12.522;2023-05-29T13:43:13;2.60;;;2.40;;
19225;SDS011;9747;48.536;12.522;2023-05-29T13:45:41;2.10;;;2.00;;
19225;SDS011;9747;48.536;12.522;2023-05-29T13:48:09;2.20;;;2.10;;
19225;SDS011;9747;48.536;12.522;2023-05-29T13:50:37;2.13;;;2.03;;
19225;SDS011;9747;48.536;12.522;2023-05-29T13:53:04;1.90;;;1.80;;
19225;SDS011;9747;48.536;12.522;2023-05-29T13:55:32;1.95;;;1.85;;
19225;SDS011;9747;48.536;12.522;2023-05-29T13:58:00;2.05;;;1.95;;
19225;SDS011;9747;48.536;12.522;2023-05-29T14:00:27;1.80;;;1.70;;
19225;SDS011;9747;48.536;12.522;2023-05-29T14:02:54;2.28;;;2.17;;
19225;SDS011;9747;48.536;12.522;2023-05-29T14:05:23;1.95;;;1.85;;
19225;SDS011;9747;48.536;12.522;2023-05-29T14:07:51;2.33;;;2.13;;
19225;SDS011;9747;48.536;12.522;2023-05-29T14:10:18;1.90;;;1.80;;
19225;SDS011;9747;48.536;12.522;2023-05-29T14:12:46;2.08;;;1.98;;
19225;SDS011;9747;48.536;12.522;2023-05-29T14:15:13;2.35;;;2.15;;
19225;SDS011;9747;48.536;12.522;2023-05-29T14:17:41;2.20;;;2.10;;
19225;SDS011;9747;48.536;12.522;2023-05-29T14:20:09;1.92;;;1.83;;
19225;SDS011;9747;48.536;12.522;2023-05-29T14:22:38;2.08;;;1.98;;
19225;SDS011;9747;48.536;12.522;2023-05-29T14:25:06;1.90;;;1.80;;
19225;SDS011;9747;48.536;12.522;2023-05-29T14:27:35;1.83;;;1.73;;
19225;SDS011;9747;48.536;12.522;2023-05-29T14:30:03;1.80;;;1.70;;
19225;SDS011;9747;48.536;12.522;2023-05-29T14:32:32;2.15;;;2.05;;
19225;SDS011;9747;48.536;12.522;2023-05-29T14:34:59;2.28;;;2.08;;
19225;SDS011;9747;48.536;12.522;2023-05-29T14:37:27;2.00;;;1.90;;
19225;SDS011;9747;48.536;12.522;2023-05-29T14:39:56;2.35;;;2.00;;
19225;SDS011;9747;48.536;12.522;2023-05-29T14:42:23;1.83;;;1.73;;
19225;SDS011;9747;48.536;12.522;2023-05-29T14:44:51;2.03;;;1.92;;
19225;SDS011;9747;48.536;12.522;2023-05-29T14:47:18;2.05;;;1.95;;
19225;SDS011;9747;48.536;12.522;2023-05-29T14:49:46;1.98;;;1.88;;
19225;SDS011;9747;48.536;12.522;2023-05-29T14:52:14;2.08;;;1.95;;
19225;SDS011;9747;48.536;12.522;2023-05-29T14:54:41;2.35;;;2.15;;
19225;SDS011;9747;48.536;12.522;2023-05-29T14:57:10;2.00;;;1.90;;
19225;SDS011;9747;48.536;12.522;2023-05-29T14:59:38;1.92;;;1.83;;
19225;SDS011;9747;48.536;12.522;2023-05-29T15:02:05;2.08;;;1.98;;
19225;SDS011;9747;48.536;12.522;2023-05-29T15:04:34;2.05;;;1.95;;
19225;SDS011;9747;48.536;12.522;2023-05-29T15:07:02;2.28;;;2.17;;
19225;SDS011;9747;48.536;12.522;2023-05-29T15:09:30;1.80;;;1.70;;